createdAt,value
2023-02-02T00:02:00.204Z,7.94
2023-02-02T00:04:36.101Z,7.87
2023-02-02T00:07:05.289Z,7.83
2023-02-02T00:09:32.856Z,7.84
2023-02-02T00:12:00.469Z,7.80
2023-02-02T00:14:27.119Z,7.96
2023-02-02T00:16:55.210Z,7.65
2023-02-02T00:19:27.624Z,7.80
2023-02-02T00:21:55.116Z,7.88
2023-02-02T00:24:22.669Z,7.96
2023-02-02T00:26:52.063Z,7.92
2023-02-02T00:29:28.018Z,7.83
2023-02-02T00:31:54.980Z,7.89
2023-02-02T00:34:22.293Z,7.93
2023-02-02T00:36:49.763Z,7.87
2023-02-02T00:39:19.255Z,7.73
2023-02-02T00:41:46.586Z,7.78
2023-02-02T00:44:32.148Z,7.85
2023-02-02T00:46:58.829Z,7.84
2023-02-02T00:49:25.544Z,7.90
2023-02-02T00:51:52.184Z,7.90
2023-02-02T00:54:18.768Z,7.87
2023-02-02T00:56:45.370Z,8.08
2023-02-02T00:59:12.515Z,7.76
2023-02-02T01:01:39.224Z,7.81
2023-02-02T01:04:06.160Z,7.71
2023-02-02T01:06:32.935Z,7.77
2023-02-02T01:08:59.514Z,7.72
2023-02-02T01:11:26.094Z,7.57
2023-02-02T01:13:52.765Z,7.67
2023-02-02T01:16:22.448Z,7.59
2023-02-02T01:18:50.059Z,7.63
2023-02-02T01:21:16.756Z,7.67
2023-02-02T01:23:43.383Z,7.73
2023-02-02T01:26:11.630Z,7.79
2023-02-02T01:28:38.585Z,7.75
2023-02-02T01:31:08.048Z,7.76
2023-02-02T01:33:34.700Z,7.77
2023-02-02T01:36:06.412Z,7.75
2023-02-02T01:38:33.589Z,7.96
2023-02-02T01:41:00.656Z,8.05
2023-02-02T01:43:52.883Z,8.02
2023-02-02T01:46:27.927Z,8.08
2023-02-02T01:49:15.706Z,8.11
2023-02-02T01:51:54.703Z,8.13
2023-02-02T01:54:35.248Z,8.07
2023-02-02T01:57:26.186Z,8.28
2023-02-02T01:59:54.816Z,8.19
2023-02-02T02:02:21.637Z,8.25
2023-02-02T02:04:50.442Z,8.18
2023-02-02T02:07:17.065Z,8.14
2023-02-02T02:09:43.811Z,8.11
2023-02-02T02:12:14.465Z,8.30
2023-02-02T02:15:02.458Z,8.13
2023-02-02T02:17:39.943Z,8.15
2023-02-02T02:20:37.504Z,7.93
2023-02-02T02:23:25.390Z,7.78
2023-02-02T02:26:27.153Z,7.75
2023-02-02T02:29:35.676Z,7.88
2023-02-02T02:32:52.545Z,7.93
2023-02-02T02:35:37.022Z,7.84
2023-02-02T02:38:12.633Z,7.92
2023-02-02T02:40:49.587Z,7.85
2023-02-02T02:43:24.536Z,7.99
2023-02-02T02:45:51.230Z,8.02
2023-02-02T02:48:17.774Z,7.99
2023-02-02T02:50:44.375Z,7.94
2023-02-02T02:53:24.120Z,7.96
2023-02-02T02:56:06.783Z,8.01
2023-02-02T02:58:54.425Z,8.15
2023-02-02T03:01:37.893Z,8.21
2023-02-02T03:04:14.579Z,8.17
2023-02-02T03:07:00.657Z,8.15
2023-02-02T03:09:32.914Z,8.20
2023-02-02T03:11:59.912Z,7.96
2023-02-02T03:14:26.640Z,7.93
2023-02-02T03:16:53.458Z,7.88
2023-02-02T03:19:20.181Z,7.89
2023-02-02T03:21:46.854Z,7.99
2023-02-02T03:24:13.493Z,8.12
2023-02-02T03:26:40.179Z,8.00
2023-02-02T03:29:06.813Z,8.18
2023-02-02T03:31:33.524Z,8.23
2023-02-02T03:34:00.141Z,8.16
2023-02-02T03:36:28.022Z,8.06
2023-02-02T03:38:54.706Z,8.10
2023-02-02T03:41:21.556Z,8.17
2023-02-02T03:43:48.091Z,8.34
2023-02-02T03:46:15.102Z,8.37
2023-02-02T03:48:41.688Z,8.58
2023-02-02T03:51:09.967Z,8.49
2023-02-02T03:53:36.616Z,8.41
2023-02-02T03:56:03.266Z,8.62
2023-02-02T03:58:29.938Z,8.69
2023-02-02T04:04:20.294Z,8.60
2023-02-02T04:06:46.876Z,8.43
2023-02-02T04:09:13.436Z,8.30
2023-02-02T04:11:40.243Z,8.28
2023-02-02T04:14:07.236Z,8.02
2023-02-02T04:16:37.104Z,7.99
2023-02-02T04:19:06.517Z,7.73
2023-02-02T04:21:33.068Z,8.11
2023-02-02T04:23:59.738Z,8.16
2023-02-02T04:26:26.823Z,8.57
2023-02-02T04:28:53.809Z,8.23
2023-02-02T04:31:20.615Z,8.21
2023-02-02T04:33:47.303Z,8.48
2023-02-02T04:36:13.871Z,8.40
2023-02-02T04:38:40.484Z,8.25
2023-02-02T04:41:13.954Z,8.07
2023-02-02T04:43:40.629Z,8.03
2023-02-02T04:46:07.454Z,7.96
2023-02-02T04:48:34.189Z,7.97
2023-02-02T04:51:02.203Z,8.03
2023-02-02T04:53:29.383Z,7.98
2023-02-02T04:55:56.416Z,7.93
2023-02-02T04:58:23.037Z,8.03
2023-02-02T05:00:49.588Z,8.03
2023-02-02T05:03:16.453Z,8.24
2023-02-02T05:05:42.952Z,8.22
2023-02-02T05:08:12.047Z,8.29
2023-02-02T05:10:42.238Z,8.37
2023-02-02T05:13:09.527Z,8.25
2023-02-02T05:15:36.063Z,8.55
2023-02-02T05:18:02.742Z,8.24
2023-02-02T05:20:29.231Z,8.38
2023-02-02T05:22:55.736Z,8.42
2023-02-02T05:25:22.706Z,8.24
2023-02-02T05:27:49.369Z,8.11
2023-02-02T05:30:16.533Z,8.03
2023-02-02T05:32:43.232Z,7.89
2023-02-02T05:35:10.157Z,8.10
2023-02-02T05:37:36.736Z,8.07
2023-02-02T05:40:04.170Z,8.27
2023-02-02T05:42:30.766Z,8.09
2023-02-02T05:44:57.241Z,8.11
2023-02-02T05:47:23.876Z,8.13
2023-02-02T05:49:50.475Z,7.92
2023-02-02T05:52:21.403Z,7.98
2023-02-02T05:54:48.086Z,7.96
2023-02-02T05:57:14.588Z,8.06
2023-02-02T05:59:41.188Z,8.20
2023-02-02T06:02:07.934Z,8.31
2023-02-02T06:04:34.483Z,8.21
2023-02-02T06:07:01.037Z,8.11
2023-02-02T06:09:27.770Z,8.05
2023-02-02T06:11:54.314Z,8.03
2023-02-02T06:14:21.189Z,8.00
2023-02-02T06:16:47.999Z,7.73
2023-02-02T06:19:14.564Z,7.81
2023-02-02T06:21:41.077Z,7.88
2023-02-02T06:24:07.758Z,7.87
2023-02-02T06:26:34.278Z,8.05
2023-02-02T06:29:00.840Z,8.07
2023-02-02T06:31:27.606Z,8.00
2023-02-02T06:33:56.432Z,7.72
2023-02-02T06:36:25.251Z,7.69
2023-02-02T06:38:53.527Z,7.58
2023-02-02T06:41:20.574Z,7.87
2023-02-02T06:43:48.223Z,7.73
2023-02-02T06:46:15.760Z,7.87
2023-02-02T06:48:42.992Z,8.06
2023-02-02T06:51:09.709Z,7.83
2023-02-02T06:53:36.356Z,8.05
2023-02-02T06:56:06.243Z,7.80
2023-02-02T06:58:34.010Z,7.70
2023-02-02T07:01:10.151Z,7.75
2023-02-02T07:03:36.833Z,7.80
2023-02-02T07:06:13.105Z,7.61
2023-02-02T07:08:39.732Z,7.51
2023-02-02T07:11:14.155Z,7.54
2023-02-02T07:13:42.877Z,7.35
2023-02-02T07:16:15.465Z,7.40
2023-02-02T07:18:48.348Z,7.40
2023-02-02T07:21:18.631Z,7.35
2023-02-02T07:23:45.671Z,7.39
2023-02-02T07:26:14.280Z,7.60
2023-02-02T07:28:41.367Z,7.60
2023-02-02T07:31:21.711Z,7.53
2023-02-02T07:33:49.396Z,7.36
2023-02-02T07:36:18.637Z,7.62
2023-02-02T07:38:47.091Z,7.37
2023-02-02T07:41:14.925Z,7.41
2023-02-02T07:43:41.517Z,7.73
2023-02-02T07:46:10.559Z,7.85
2023-02-02T07:48:37.512Z,7.75
2023-02-02T07:51:06.618Z,7.61
2023-02-02T07:53:34.104Z,7.74
2023-02-02T07:56:12.469Z,7.99
2023-02-02T07:58:39.672Z,7.87
2023-02-02T08:01:08.632Z,7.97
2023-02-02T08:03:36.220Z,8.22
2023-02-02T08:06:10.509Z,8.32
2023-02-02T08:08:37.172Z,7.94
2023-02-02T08:11:03.788Z,8.03
2023-02-02T08:13:30.442Z,8.31
2023-02-02T08:16:00.217Z,8.12
2023-02-02T08:18:26.787Z,8.20
2023-02-02T08:20:53.479Z,8.20
2023-02-02T08:23:23.698Z,8.42
2023-02-02T08:25:50.977Z,8.46
2023-02-02T08:28:18.806Z,8.53
2023-02-02T08:30:46.087Z,8.47
2023-02-02T08:33:13.009Z,8.61
2023-02-02T08:35:43.883Z,8.65
2023-02-02T08:38:10.534Z,8.54
2023-02-02T08:40:37.115Z,8.70
2023-02-02T08:43:04.173Z,8.57
2023-02-02T08:46:03.817Z,8.71
2023-02-02T08:48:19.914Z,8.85
2023-02-02T08:50:55.866Z,8.76
2023-02-02T08:53:23.560Z,8.98
2023-02-02T08:56:01.348Z,8.87
2023-02-02T08:58:28.707Z,8.84
2023-02-02T09:00:55.374Z,8.70
2023-02-02T09:03:21.931Z,8.67
2023-02-02T09:05:48.617Z,8.98
2023-02-02T09:08:15.257Z,8.70
2023-02-02T09:10:41.805Z,8.95
2023-02-02T09:13:08.458Z,9.04
2023-02-02T09:15:35.182Z,9.66
2023-02-02T09:18:01.706Z,9.76
2023-02-02T09:20:28.277Z,9.90
2023-02-02T09:22:57.720Z,9.96
2023-02-02T09:25:28.401Z,9.70
2023-02-02T09:27:54.980Z,9.59
2023-02-02T09:30:21.819Z,9.79
2023-02-02T09:32:51.285Z,9.64
2023-02-02T09:35:18.011Z,9.73
2023-02-02T09:37:45.460Z,10.03
2023-02-02T09:40:19.362Z,10.36
2023-02-02T09:43:01.465Z,10.49
2023-02-02T09:45:39.254Z,10.49
2023-02-02T09:48:19.389Z,10.62
2023-02-02T09:50:51.076Z,10.67
2023-02-02T09:53:29.242Z,10.43
2023-02-02T09:56:00.512Z,10.74
2023-02-02T09:58:39.892Z,10.99
2023-02-02T10:01:11.260Z,10.88
2023-02-02T10:03:43.972Z,11.11
2023-02-02T10:06:16.316Z,10.94
2023-02-02T10:08:49.070Z,10.91
2023-02-02T10:11:24.817Z,11.07
2023-02-02T10:13:56.426Z,11.12
2023-02-02T10:16:24.840Z,10.98
2023-02-02T10:19:04.779Z,10.92
2023-02-02T10:21:46.322Z,10.89
2023-02-02T10:24:23.093Z,10.96
2023-02-02T10:26:55.638Z,11.13
2023-02-02T10:29:22.226Z,11.29
2023-02-02T10:31:48.914Z,11.20
2023-02-02T10:34:18.282Z,11.06
2023-02-02T10:36:55.018Z,10.80
2023-02-02T10:39:41.822Z,10.94
2023-02-02T10:42:30.219Z,11.20
2023-02-02T10:45:04.085Z,11.35
2023-02-02T10:47:33.766Z,10.63
2023-02-02T10:50:19.061Z,10.56
2023-02-02T10:52:50.316Z,10.57
2023-02-02T10:55:35.735Z,10.64
2023-02-02T10:58:11.321Z,10.84
2023-02-02T11:00:51.418Z,10.62
2023-02-02T11:03:21.239Z,10.53
2023-02-02T11:06:06.675Z,10.70
2023-02-02T11:08:35.067Z,10.83
2023-02-02T11:11:19.642Z,11.10
2023-02-02T11:14:10.000Z,10.81
2023-02-02T11:16:43.788Z,10.78
2023-02-02T11:19:17.178Z,11.16
2023-02-02T11:22:01.487Z,11.08
2023-02-02T11:24:36.824Z,11.09
2023-02-02T11:27:08.409Z,10.96
2023-02-02T11:29:48.973Z,10.82
2023-02-02T11:32:34.344Z,10.78
2023-02-02T11:35:04.148Z,10.77
2023-02-02T11:37:35.861Z,10.84
2023-02-02T11:40:24.914Z,10.88
2023-02-02T11:42:53.011Z,10.84
2023-02-02T11:45:29.311Z,11.11
2023-02-02T11:48:01.643Z,11.14
2023-02-02T11:50:28.890Z,11.19
2023-02-02T11:52:56.001Z,11.09
2023-02-02T11:55:27.755Z,11.21
2023-02-02T11:58:20.181Z,11.37
2023-02-02T12:00:48.752Z,11.56
2023-02-02T12:03:33.652Z,11.24
2023-02-02T12:06:02.139Z,10.97
2023-02-02T12:08:29.675Z,11.01
2023-02-02T12:11:00.144Z,11.23
2023-02-02T12:13:26.598Z,10.94
2023-02-02T12:16:15.001Z,10.80
2023-02-02T12:19:19.396Z,10.86
2023-02-02T12:22:02.955Z,10.95
2023-02-02T12:24:36.240Z,10.94
2023-02-02T12:27:11.874Z,11.07
2023-02-02T12:29:57.331Z,11.01
2023-02-02T12:32:47.427Z,11.03
2023-02-02T12:35:48.254Z,11.14
2023-02-02T12:38:43.578Z,11.01
2023-02-02T12:42:11.444Z,11.18
2023-02-02T12:44:54.513Z,11.24
2023-02-02T12:47:58.340Z,11.44
2023-02-02T12:50:41.277Z,11.36
2023-02-02T12:53:17.120Z,11.56
2023-02-02T12:56:33.053Z,11.51
2023-02-02T12:59:47.141Z,11.30
2023-02-02T13:02:25.988Z,11.61
2023-02-02T13:07:51.505Z,10.94
2023-02-02T13:10:30.676Z,11.03
2023-02-02T13:13:01.561Z,10.93
2023-02-02T13:15:37.312Z,10.83
2023-02-02T13:18:14.109Z,10.95
2023-02-02T13:20:52.931Z,11.16
2023-02-02T13:23:27.525Z,11.27
2023-02-02T13:26:01.370Z,11.25
2023-02-02T13:28:43.504Z,11.30
2023-02-02T13:31:19.877Z,11.15
2023-02-02T13:33:53.278Z,11.31
2023-02-02T13:36:28.559Z,11.49
2023-02-02T13:38:58.571Z,11.46
2023-02-02T13:41:26.302Z,11.33
2023-02-02T13:44:03.998Z,11.38
2023-02-02T13:46:43.284Z,11.43
2023-02-02T13:49:21.998Z,11.59
2023-02-02T13:52:27.093Z,11.36
2023-02-02T13:55:12.438Z,11.44
2023-02-02T13:57:38.958Z,11.42
2023-02-02T14:00:19.255Z,11.44
2023-02-02T14:02:56.661Z,11.21
2023-02-02T14:05:43.585Z,11.23
2023-02-02T14:08:20.487Z,11.39
2023-02-02T14:10:52.977Z,11.37
2023-02-02T14:13:41.268Z,11.37
2023-02-02T14:16:20.563Z,11.31
2023-02-02T14:18:50.195Z,11.32
2023-02-02T14:21:32.478Z,11.17
2023-02-02T14:24:05.172Z,11.46
2023-02-02T14:26:50.418Z,11.35
2023-02-02T14:29:32.382Z,11.35
2023-02-02T14:32:21.618Z,11.30
2023-02-02T14:34:49.315Z,11.43
2023-02-02T14:37:25.453Z,11.59
2023-02-02T14:40:07.344Z,11.28
2023-02-02T14:43:01.790Z,11.38
2023-02-02T14:45:29.966Z,11.35
2023-02-02T14:48:01.905Z,11.29
2023-02-02T14:50:32.894Z,11.19
2023-02-02T14:53:06.832Z,11.19
2023-02-02T14:55:36.899Z,11.41
2023-02-02T14:58:06.480Z,11.28
2023-02-02T15:00:35.238Z,11.29
2023-02-02T15:03:46.993Z,11.36
2023-02-02T15:06:32.152Z,11.11
2023-02-02T15:09:21.016Z,11.24
2023-02-02T15:12:02.748Z,11.23
2023-02-02T15:14:51.681Z,11.24
2023-02-02T15:17:20.225Z,11.38
2023-02-02T15:20:10.256Z,11.14
2023-02-02T15:22:58.260Z,11.10
2023-02-02T15:25:31.142Z,11.17
2023-02-02T15:28:11.295Z,11.12
2023-02-02T15:30:44.029Z,11.15
2023-02-02T15:33:42.186Z,11.32
2023-02-02T15:36:25.755Z,11.38
2023-02-02T15:38:53.428Z,11.40
2023-02-02T15:41:22.272Z,11.37
2023-02-02T15:43:48.924Z,11.29
2023-02-02T15:46:24.380Z,11.33
2023-02-02T15:49:33.187Z,11.25
2023-02-02T15:52:23.080Z,11.15
2023-02-02T15:54:58.189Z,11.36
2023-02-02T15:57:29.794Z,11.31
2023-02-02T15:59:57.022Z,11.08
2023-02-02T16:02:41.079Z,11.21
2023-02-02T16:05:47.547Z,11.01
2023-02-02T16:08:19.554Z,10.75
2023-02-02T16:10:49.381Z,10.86
2023-02-02T16:13:28.102Z,11.02
2023-02-02T16:16:00.415Z,11.08
2023-02-02T16:18:27.028Z,10.96
2023-02-02T16:20:54.669Z,10.84
2023-02-02T16:23:34.484Z,10.80
2023-02-02T16:26:03.194Z,10.74
2023-02-02T16:28:29.971Z,11.09
2023-02-02T16:31:00.030Z,10.80
2023-02-02T16:33:33.356Z,10.88
2023-02-02T16:35:59.908Z,10.75
2023-02-02T16:38:33.791Z,10.61
2023-02-02T16:41:03.443Z,10.78
2023-02-02T16:43:30.459Z,10.70
2023-02-02T16:46:00.324Z,10.70
2023-02-02T16:48:32.845Z,10.76
2023-02-02T16:51:17.871Z,10.66
2023-02-02T16:53:47.482Z,10.81
2023-02-02T16:56:40.312Z,10.66
2023-02-02T16:59:19.261Z,10.86
2023-02-02T17:01:50.035Z,10.48
2023-02-02T17:04:28.203Z,10.47
2023-02-02T17:06:58.160Z,10.43
2023-02-02T17:09:40.878Z,10.37
2023-02-02T17:12:32.128Z,10.72
2023-02-02T17:15:05.771Z,10.70
2023-02-02T17:17:32.336Z,10.67
2023-02-02T17:19:58.916Z,10.45
2023-02-02T17:22:27.895Z,10.44
2023-02-02T17:24:54.675Z,10.63
2023-02-02T17:27:34.268Z,10.60
2023-02-02T17:30:04.762Z,10.55
2023-02-02T17:32:31.256Z,10.56
2023-02-02T17:34:57.889Z,10.58
2023-02-02T17:37:24.666Z,10.57
2023-02-02T17:39:51.469Z,10.70
2023-02-02T17:42:28.492Z,10.51
2023-02-02T17:44:54.982Z,10.59
2023-02-02T17:47:21.531Z,10.55
2023-02-02T17:49:48.319Z,10.68
2023-02-02T17:52:14.810Z,10.59
2023-02-02T17:54:41.286Z,10.51
2023-02-02T17:57:07.895Z,10.56
2023-02-02T17:59:34.386Z,10.59
2023-02-02T18:02:01.667Z,10.50
2023-02-02T18:04:28.694Z,10.41
2023-02-02T18:06:55.211Z,10.57
2023-02-02T18:09:21.700Z,10.34
2023-02-02T18:11:49.903Z,10.20
2023-02-02T18:14:16.477Z,10.48
2023-02-02T18:16:43.010Z,10.72
2023-02-02T18:19:10.504Z,10.54
2023-02-02T18:21:37.547Z,10.61
2023-02-02T18:24:04.456Z,10.44
2023-02-02T18:26:32.730Z,10.48
2023-02-02T18:28:59.525Z,10.58
2023-02-02T18:31:27.073Z,10.47
2023-02-02T18:33:54.541Z,10.49
2023-02-02T18:36:23.587Z,10.38
2023-02-02T18:38:51.378Z,10.57
2023-02-02T18:41:19.519Z,10.33
2023-02-02T18:43:46.005Z,10.35
2023-02-02T18:46:15.059Z,10.57
2023-02-02T18:48:42.560Z,10.46
2023-02-02T18:51:16.036Z,10.32
2023-02-02T18:53:44.127Z,10.46
2023-02-02T18:56:12.422Z,10.29
2023-02-02T18:58:39.843Z,10.42
2023-02-02T19:01:08.497Z,10.18
2023-02-02T19:03:36.696Z,10.56
2023-02-02T19:06:23.541Z,10.47
2023-02-02T19:08:50.195Z,10.58
2023-02-02T19:11:22.785Z,10.11
2023-02-02T19:13:49.715Z,10.14
2023-02-02T19:16:26.569Z,9.97
2023-02-02T19:19:17.372Z,10.05
2023-02-02T19:21:44.016Z,9.99
2023-02-02T19:24:14.051Z,9.91
2023-02-02T19:26:45.422Z,10.14
2023-02-02T19:29:23.325Z,10.10
2023-02-02T19:32:03.094Z,10.07
2023-02-02T19:34:29.924Z,10.07
2023-02-02T19:36:56.457Z,10.43
2023-02-02T19:39:29.255Z,10.19
2023-02-02T19:41:59.188Z,10.22
2023-02-02T19:44:31.012Z,10.23
2023-02-02T19:46:57.897Z,10.21
2023-02-02T19:49:32.192Z,10.32
2023-02-02T19:51:59.687Z,10.21
2023-02-02T19:54:39.336Z,9.98
2023-02-02T19:57:25.425Z,9.99
2023-02-02T19:59:52.965Z,10.15
2023-02-02T20:02:38.662Z,10.26
2023-02-02T20:05:11.365Z,10.02
2023-02-02T20:07:39.114Z,10.12
2023-02-02T20:10:19.425Z,10.06
2023-02-02T20:12:46.296Z,10.01
2023-02-02T20:15:33.032Z,9.93
2023-02-02T20:18:01.751Z,9.81
2023-02-02T20:20:53.141Z,9.94
2023-02-02T20:23:49.008Z,9.56
2023-02-02T20:26:48.384Z,9.83
2023-02-02T20:29:17.524Z,9.94
2023-02-02T20:31:45.462Z,9.91
2023-02-02T20:34:30.568Z,9.86
2023-02-02T20:37:22.805Z,9.97
2023-02-02T20:40:00.276Z,9.68
2023-02-02T20:42:27.216Z,9.73
2023-02-02T20:44:54.237Z,9.72
2023-02-02T20:47:21.443Z,9.73
2023-02-02T20:49:48.388Z,9.98
2023-02-02T20:52:24.210Z,9.87
2023-02-02T20:54:52.229Z,9.87
2023-02-02T20:57:19.184Z,9.66
2023-02-02T20:59:45.919Z,9.85
2023-02-02T21:02:18.965Z,9.84
2023-02-02T21:04:49.833Z,9.84
2023-02-02T21:07:18.695Z,10.01
2023-02-02T21:09:46.212Z,9.90
2023-02-02T21:12:13.335Z,9.93
2023-02-02T21:14:40.065Z,9.97
2023-02-02T21:17:14.889Z,10.08
2023-02-02T21:19:42.778Z,10.11
2023-02-02T21:22:09.277Z,10.23
2023-02-02T21:24:35.773Z,9.96
2023-02-02T21:27:04.601Z,9.93
2023-02-02T21:29:32.644Z,9.84
2023-02-02T21:32:02.462Z,9.87
2023-02-02T21:34:30.263Z,9.84
2023-02-02T21:36:58.217Z,9.76
2023-02-02T21:39:36.650Z,9.80
2023-02-02T21:42:09.063Z,9.91
2023-02-02T21:44:37.795Z,9.86
2023-02-02T21:47:30.867Z,10.04
2023-02-02T21:50:01.390Z,9.95
2023-02-02T21:52:33.787Z,9.84
2023-02-02T21:55:06.477Z,9.85
2023-02-02T21:57:37.193Z,9.82
2023-02-02T22:00:32.533Z,9.71
2023-02-02T22:02:59.944Z,9.77
2023-02-02T22:05:34.044Z,9.82
2023-02-02T22:08:01.697Z,9.89
2023-02-02T22:10:38.940Z,9.93
2023-02-02T22:13:13.881Z,9.87
2023-02-02T22:15:41.809Z,9.80
2023-02-02T22:18:23.044Z,9.95
2023-02-02T22:20:51.364Z,9.61
2023-02-02T22:23:20.578Z,9.60
2023-02-02T22:25:49.803Z,9.70
2023-02-02T22:28:29.745Z,9.63
2023-02-02T22:30:56.837Z,9.66
2023-02-02T22:33:23.570Z,9.68
2023-02-02T22:35:50.904Z,9.67
2023-02-02T22:38:19.678Z,9.71
2023-02-02T22:40:47.426Z,9.65
2023-02-02T22:43:16.295Z,9.76
2023-02-02T22:45:43.652Z,9.55
2023-02-02T22:48:11.443Z,9.42
2023-02-02T22:50:38.102Z,9.64
2023-02-02T22:53:05.080Z,9.66
2023-02-02T22:55:32.429Z,9.67
2023-02-02T22:57:59.052Z,9.66
2023-02-02T23:00:28.254Z,9.60
2023-02-02T23:02:55.983Z,9.38
2023-02-02T23:05:23.949Z,9.64
2023-02-02T23:07:50.978Z,9.60
2023-02-02T23:10:20.369Z,9.64
2023-02-02T23:12:47.164Z,9.70
2023-02-02T23:15:14.440Z,9.94
2023-02-02T23:17:41.573Z,9.98
2023-02-02T23:20:10.868Z,9.82
2023-02-02T23:22:37.417Z,9.60
2023-02-02T23:25:04.669Z,9.60
2023-02-02T23:27:31.409Z,9.72
2023-02-02T23:29:57.911Z,9.68
2023-02-02T23:32:24.568Z,9.78
2023-02-02T23:34:51.217Z,9.68
2023-02-02T23:37:17.870Z,9.85
2023-02-02T23:39:44.566Z,9.77
2023-02-02T23:42:11.216Z,9.68
2023-02-02T23:44:37.713Z,9.70
2023-02-02T23:47:04.867Z,9.53
2023-02-02T23:49:32.935Z,9.59
2023-02-02T23:51:59.790Z,9.65
2023-02-02T23:54:27.031Z,9.31
2023-02-02T23:56:53.669Z,9.51
2023-02-02T23:59:20.154Z,9.54
